sensor_id;sensor_type;location;lat;lon;timestamp;temperature;humidity
3944;DHT22;1986;52.546;13.428;2024-03-22T00:01:24;7.90;99.90
3944;DHT22;1986;52.546;13.428;2024-03-22T00:03:53;7.90;99.90
3944;DHT22;1986;52.546;13.428;2024-03-22T00:06:19;7.90;99.90
3944;DHT22;1986;52.546;13.428;2024-03-22T00:08:47;8.00;99.90
3944;DHT22;1986;52.546;13.428;2024-03-22T00:11:13;8.00;99.90
3944;DHT22;1986;52.546;13.428;2024-03-22T00:13:41;8.00;99.90
3944;DHT22;1986;52.546;13.428;2024-03-22T00:16:07;8.00;99.90
3944;DHT22;1986;52.546;13.428;2024-03-22T00:18:33;8.00;99.90
3944;DHT22;1986;52.546;13.428;2024-03-22T00:21:01;8.00;99.90
3944;DHT22;1986;52.546;13.428;2024-03-22T00:23:28;8.10;99.90
3944;DHT22;1986;52.546;13.428;2024-03-22T00:25:55;8.10;99.90
3944;DHT22;1986;52.546;13.428;2024-03-22T00:28:24;8.10;99.90
3944;DHT22;1986;52.546;13.428;2024-03-22T00:30:49;8.10;99.90
3944;DHT22;1986;52.546;13.428;2024-03-22T00:33:17;8.10;99.90
3944;DHT22;1986;52.546;13.428;2024-03-22T00:35:42;8.20;99.90
3944;DHT22;1986;52.546;13.428;2024-03-22T00:38:11;8.10;99.90
3944;DHT22;1986;52.546;13.428;2024-03-22T00:40:37;8.10;99.90
3944;DHT22;1986;52.546;13.428;2024-03-22T00:43:04;8.20;99.90
3944;DHT22;1986;52.546;13.428;2024-03-22T00:45:36;8.20;99.90
3944;DHT22;1986;52.546;13.428;2024-03-22T00:48:06;8.20;99.90
3944;DHT22;1986;52.546;13.428;2024-03-22T00:50:32;8.20;99.90
3944;DHT22;1986;52.546;13.428;2024-03-22T00:52:59;8.30;99.90
3944;DHT22;1986;52.546;13.428;2024-03-22T00:55:29;8.20;99.90
3944;DHT22;1986;52.546;13.428;2024-03-22T00:57:56;8.30;99.90
3944;DHT22;1986;52.546;13.428;2024-03-22T01:00:22;8.30;99.90
3944;DHT22;1986;52.546;13.428;2024-03-22T01:02:50;8.30;99.90
3944;DHT22;1986;52.546;13.428;2024-03-22T01:05:16;8.30;99.90
3944;DHT22;1986;52.546;13.428;2024-03-22T01:07:43;8.30;99.90
3944;DHT22;1986;52.546;13.428;2024-03-22T01:10:09;8.40;99.90
3944;DHT22;1986;52.546;13.428;2024-03-22T01:12:38;8.40;99.90
3944;DHT22;1986;52.546;13.428;2024-03-22T01:15:05;8.40;99.90
3944;DHT22;1986;52.546;13.428;2024-03-22T01:17:33;8.40;99.90
3944;DHT22;1986;52.546;13.428;2024-03-22T01:19:59;8.40;99.90
3944;DHT22;1986;52.546;13.428;2024-03-22T01:22:26;8.40;99.90
3944;DHT22;1986;52.546;13.428;2024-03-22T01:24:53;8.40;99.90
3944;DHT22;1986;52.546;13.428;2024-03-22T01:27:19;8.30;99.90
3944;DHT22;1986;52.546;13.428;2024-03-22T01:29:47;8.30;99.90
3944;DHT22;1986;52.546;13.428;2024-03-22T01:32:13;8.40;99.90
3944;DHT22;1986;52.546;13.428;2024-03-22T01:34:40;8.30;99.90
3944;DHT22;1986;52.546;13.428;2024-03-22T01:37:06;8.30;99.90
3944;DHT22;1986;52.546;13.428;2024-03-22T01:39:34;8.30;99.90
3944;DHT22;1986;52.546;13.428;2024-03-22T01:42:00;8.30;99.90
3944;DHT22;1986;52.546;13.428;2024-03-22T01:44:27;8.30;99.90
3944;DHT22;1986;52.546;13.428;2024-03-22T01:47:00;8.30;99.90
3944;DHT22;1986;52.546;13.428;2024-03-22T01:49:27;8.30;99.90
3944;DHT22;1986;52.546;13.428;2024-03-22T01:51:53;8.30;99.90
3944;DHT22;1986;52.546;13.428;2024-03-22T01:54:20;8.30;99.90
3944;DHT22;1986;52.546;13.428;2024-03-22T01:56:48;8.30;99.90
3944;DHT22;1986;52.546;13.428;2024-03-22T01:59:14;8.30;99.90
3944;DHT22;1986;52.546;13.428;2024-03-22T02:01:42;8.30;99.90
3944;DHT22;1986;52.546;13.428;2024-03-22T02:04:10;8.30;99.90
3944;DHT22;1986;52.546;13.428;2024-03-22T02:06:40;8.20;99.90
3944;DHT22;1986;52.546;13.428;2024-03-22T02:09:06;8.30;99.90
3944;DHT22;1986;52.546;13.428;2024-03-22T02:11:43;8.20;99.90
3944;DHT22;1986;52.546;13.428;2024-03-22T02:14:12;8.20;99.90
3944;DHT22;1986;52.546;13.428;2024-03-22T02:16:40;8.20;99.90
3944;DHT22;1986;52.546;13.428;2024-03-22T02:19:06;8.20;99.90
3944;DHT22;1986;52.546;13.428;2024-03-22T02:21:34;8.20;99.90
3944;DHT22;1986;52.546;13.428;2024-03-22T02:24:02;8.20;99.90
3944;DHT22;1986;52.546;13.428;2024-03-22T02:26:30;8.20;99.90
3944;DHT22;1986;52.546;13.428;2024-03-22T02:28:56;8.20;99.90
3944;DHT22;1986;52.546;13.428;2024-03-22T02:31:23;8.10;99.90
3944;DHT22;1986;52.546;13.428;2024-03-22T02:33:51;8.20;99.90
3944;DHT22;1986;52.546;13.428;2024-03-22T02:36:18;8.20;99.90
3944;DHT22;1986;52.546;13.428;2024-03-22T02:38:44;8.20;99.90
3944;DHT22;1986;52.546;13.428;2024-03-22T02:41:13;8.20;99.90
3944;DHT22;1986;52.546;13.428;2024-03-22T02:43:39;8.30;99.90
3944;DHT22;1986;52.546;13.428;2024-03-22T02:46:06;8.20;99.90
3944;DHT22;1986;52.546;13.428;2024-03-22T02:48:33;8.20;99.90
3944;DHT22;1986;52.546;13.428;2024-03-22T02:51:00;8.30;99.90
3944;DHT22;1986;52.546;13.428;2024-03-22T02:53:26;8.30;99.90
3944;DHT22;1986;52.546;13.428;2024-03-22T02:55:53;8.40;99.90
3944;DHT22;1986;52.546;13.428;2024-03-22T02:58:20;8.30;99.90
3944;DHT22;1986;52.546;13.428;2024-03-22T03:00:48;8.40;99.90
3944;DHT22;1986;52.546;13.428;2024-03-22T03:03:14;8.40;99.90
3944;DHT22;1986;52.546;13.428;2024-03-22T03:05:42;8.40;99.90
3944;DHT22;1986;52.546;13.428;2024-03-22T03:08:08;8.40;99.90
3944;DHT22;1986;52.546;13.428;2024-03-22T03:10:35;8.40;99.90
3944;DHT22;1986;52.546;13.428;2024-03-22T03:13:01;8.40;99.90
3944;DHT22;1986;52.546;13.428;2024-03-22T03:15:29;8.40;99.90
3944;DHT22;1986;52.546;13.428;2024-03-22T03:17:55;8.40;99.90
3944;DHT22;1986;52.546;13.428;2024-03-22T03:20:23;8.30;99.90
3944;DHT22;1986;52.546;13.428;2024-03-22T03:22:49;8.30;99.90
3944;DHT22;1986;52.546;13.428;2024-03-22T03:25:16;8.30;99.90
3944;DHT22;1986;52.546;13.428;2024-03-22T03:27:42;8.30;99.90
3944;DHT22;1986;52.546;13.428;2024-03-22T03:30:10;8.30;99.90
3944;DHT22;1986;52.546;13.428;2024-03-22T03:32:37;8.30;99.90
3944;DHT22;1986;52.546;13.428;2024-03-22T03:35:05;8.30;99.90
3944;DHT22;1986;52.546;13.428;2024-03-22T03:37:31;8.30;99.90
3944;DHT22;1986;52.546;13.428;2024-03-22T03:39:58;8.30;99.90
3944;DHT22;1986;52.546;13.428;2024-03-22T03:42:24;8.30;99.90
3944;DHT22;1986;52.546;13.428;2024-03-22T03:44:51;8.30;99.90
3944;DHT22;1986;52.546;13.428;2024-03-22T03:47:17;8.30;99.90
3944;DHT22;1986;52.546;13.428;2024-03-22T03:49:47;8.30;99.90
3944;DHT22;1986;52.546;13.428;2024-03-22T03:52:13;8.40;99.90
3944;DHT22;1986;52.546;13.428;2024-03-22T03:54:40;8.40;99.90
3944;DHT22;1986;52.546;13.428;2024-03-22T03:57:06;8.40;99.90
3944;DHT22;1986;52.546;13.428;2024-03-22T03:59:33;8.40;99.90
3944;DHT22;1986;52.546;13.428;2024-03-22T04:01:59;8.50;99.90
3944;DHT22;1986;52.546;13.428;2024-03-22T04:04:26;8.40;99.90
3944;DHT22;1986;52.546;13.428;2024-03-22T04:06:54;8.40;99.90
3944;DHT22;1986;52.546;13.428;2024-03-22T04:09:21;8.40;99.90
3944;DHT22;1986;52.546;13.428;2024-03-22T04:11:47;8.40;99.90
3944;DHT22;1986;52.546;13.428;2024-03-22T04:14:16;8.40;99.90
3944;DHT22;1986;52.546;13.428;2024-03-22T04:16:42;8.40;99.90
3944;DHT22;1986;52.546;13.428;2024-03-22T04:19:08;8.40;99.90
3944;DHT22;1986;52.546;13.428;2024-03-22T04:21:34;8.40;99.90
3944;DHT22;1986;52.546;13.428;2024-03-22T04:24:11;8.40;99.90
3944;DHT22;1986;52.546;13.428;2024-03-22T04:26:37;8.40;99.90
3944;DHT22;1986;52.546;13.428;2024-03-22T04:29:04;8.40;99.90
3944;DHT22;1986;52.546;13.428;2024-03-22T04:31:30;8.40;99.90
3944;DHT22;1986;52.546;13.428;2024-03-22T04:33:57;8.40;99.90
3944;DHT22;1986;52.546;13.428;2024-03-22T04:36:23;8.40;99.90
3944;DHT22;1986;52.546;13.428;2024-03-22T04:38:51;8.40;99.90
3944;DHT22;1986;52.546;13.428;2024-03-22T04:41:20;8.40;99.90
3944;DHT22;1986;52.546;13.428;2024-03-22T04:43:47;8.40;99.90
3944;DHT22;1986;52.546;13.428;2024-03-22T04:46:14;8.40;99.90
3944;DHT22;1986;52.546;13.428;2024-03-22T04:48:40;8.40;99.90
3944;DHT22;1986;52.546;13.428;2024-03-22T04:51:07;8.40;99.90
3944;DHT22;1986;52.546;13.428;2024-03-22T04:53:33;8.40;99.90
3944;DHT22;1986;52.546;13.428;2024-03-22T04:56:00;8.50;99.90
3944;DHT22;1986;52.546;13.428;2024-03-22T04:58:27;8.50;99.90
3944;DHT22;1986;52.546;13.428;2024-03-22T05:00:57;8.50;99.90
3944;DHT22;1986;52.546;13.428;2024-03-22T05:03:23;8.50;99.90
3944;DHT22;1986;52.546;13.428;2024-03-22T05:05:50;8.40;99.90
3944;DHT22;1986;52.546;13.428;2024-03-22T05:08:16;8.50;99.90
3944;DHT22;1986;52.546;13.428;2024-03-22T05:10:44;8.50;99.90
3944;DHT22;1986;52.546;13.428;2024-03-22T05:13:12;8.50;99.90
3944;DHT22;1986;52.546;13.428;2024-03-22T05:15:43;8.50;99.90
3944;DHT22;1986;52.546;13.428;2024-03-22T05:18:09;8.50;99.90
3944;DHT22;1986;52.546;13.428;2024-03-22T05:20:36;8.50;99.90
3944;DHT22;1986;52.546;13.428;2024-03-22T05:23:02;8.50;99.90
3944;DHT22;1986;52.546;13.428;2024-03-22T05:25:29;8.50;99.90
3944;DHT22;1986;52.546;13.428;2024-03-22T05:27:55;8.50;99.90
3944;DHT22;1986;52.546;13.428;2024-03-22T05:30:27;8.60;99.90
3944;DHT22;1986;52.546;13.428;2024-03-22T05:32:54;8.60;99.90
3944;DHT22;1986;52.546;13.428;2024-03-22T05:35:21;8.60;99.90
3944;DHT22;1986;52.546;13.428;2024-03-22T05:37:49;8.70;99.90
3944;DHT22;1986;52.546;13.428;2024-03-22T05:40:16;8.70;99.90
3944;DHT22;1986;52.546;13.428;2024-03-22T05:42:42;8.70;99.90
3944;DHT22;1986;52.546;13.428;2024-03-22T05:45:09;8.80;99.90
3944;DHT22;1986;52.546;13.428;2024-03-22T05:47:35;8.70;99.90
3944;DHT22;1986;52.546;13.428;2024-03-22T05:50:06;8.80;99.90
3944;DHT22;1986;52.546;13.428;2024-03-22T05:52:33;8.80;99.90
3944;DHT22;1986;52.546;13.428;2024-03-22T05:55:01;8.80;99.90
3944;DHT22;1986;52.546;13.428;2024-03-22T05:57:26;8.90;99.90
3944;DHT22;1986;52.546;13.428;2024-03-22T05:59:54;8.90;99.90
3944;DHT22;1986;52.546;13.428;2024-03-22T06:02:20;8.90;99.90
3944;DHT22;1986;52.546;13.428;2024-03-22T06:04:46;9.00;99.90
3944;DHT22;1986;52.546;13.428;2024-03-22T06:07:14;9.10;99.90
3944;DHT22;1986;52.546;13.428;2024-03-22T06:09:42;9.20;99.90
3944;DHT22;1986;52.546;13.428;2024-03-22T06:12:11;9.30;99.90
3944;DHT22;1986;52.546;13.428;2024-03-22T06:14:39;9.30;99.90
3944;DHT22;1986;52.546;13.428;2024-03-22T06:17:05;9.30;99.90
3944;DHT22;1986;52.546;13.428;2024-03-22T06:19:32;9.30;99.90
3944;DHT22;1986;52.546;13.428;2024-03-22T06:21:58;9.30;99.90
3944;DHT22;1986;52.546;13.428;2024-03-22T06:24:29;9.40;99.90
3944;DHT22;1986;52.546;13.428;2024-03-22T06:26:55;9.30;99.90
3944;DHT22;1986;52.546;13.428;2024-03-22T06:29:24;9.40;99.90
3944;DHT22;1986;52.546;13.428;2024-03-22T06:31:50;9.40;99.90
3944;DHT22;1986;52.546;13.428;2024-03-22T06:34:18;9.30;99.90
3944;DHT22;1986;52.546;13.428;2024-03-22T06:36:44;9.40;99.90
3944;DHT22;1986;52.546;13.428;2024-03-22T06:39:11;9.50;99.90
3944;DHT22;1986;52.546;13.428;2024-03-22T06:41:38;9.60;99.90
3944;DHT22;1986;52.546;13.428;2024-03-22T06:44:08;9.50;99.90
3944;DHT22;1986;52.546;13.428;2024-03-22T06:46:37;9.50;99.90
3944;DHT22;1986;52.546;13.428;2024-03-22T06:49:04;9.50;99.90
3944;DHT22;1986;52.546;13.428;2024-03-22T06:51:51;9.50;99.90
3944;DHT22;1986;52.546;13.428;2024-03-22T06:54:18;9.50;99.90
3944;DHT22;1986;52.546;13.428;2024-03-22T06:56:45;9.50;99.90
3944;DHT22;1986;52.546;13.428;2024-03-22T06:59:12;9.50;99.90
3944;DHT22;1986;52.546;13.428;2024-03-22T07:01:39;9.60;99.90
3944;DHT22;1986;52.546;13.428;2024-03-22T07:04:06;9.60;99.90
3944;DHT22;1986;52.546;13.428;2024-03-22T07:06:32;9.60;99.90
3944;DHT22;1986;52.546;13.428;2024-03-22T07:09:04;9.60;99.90
3944;DHT22;1986;52.546;13.428;2024-03-22T07:11:32;9.70;99.90
3944;DHT22;1986;52.546;13.428;2024-03-22T07:14:00;9.70;99.90
3944;DHT22;1986;52.546;13.428;2024-03-22T07:16:26;9.70;99.90
3944;DHT22;1986;52.546;13.428;2024-03-22T07:18:53;9.80;99.90
3944;DHT22;1986;52.546;13.428;2024-03-22T07:21:20;9.80;99.90
3944;DHT22;1986;52.546;13.428;2024-03-22T07:23:49;9.70;99.90
3944;DHT22;1986;52.546;13.428;2024-03-22T07:26:16;9.70;99.90
3944;DHT22;1986;52.546;13.428;2024-03-22T07:28:43;9.80;99.90
3944;DHT22;1986;52.546;13.428;2024-03-22T07:31:12;9.80;99.90
3944;DHT22;1986;52.546;13.428;2024-03-22T07:33:39;9.80;99.90
3944;DHT22;1986;52.546;13.428;2024-03-22T07:36:06;9.80;99.90
3944;DHT22;1986;52.546;13.428;2024-03-22T07:38:33;9.80;99.90
3944;DHT22;1986;52.546;13.428;2024-03-22T07:40:59;9.80;99.90
3944;DHT22;1986;52.546;13.428;2024-03-22T07:43:34;9.90;99.90
3944;DHT22;1986;52.546;13.428;2024-03-22T07:46:00;9.90;99.90
3944;DHT22;1986;52.546;13.428;2024-03-22T07:48:29;10.00;99.90
3944;DHT22;1986;52.546;13.428;2024-03-22T07:50:58;10.10;99.90
3944;DHT22;1986;52.546;13.428;2024-03-22T07:53:25;10.20;99.90
3944;DHT22;1986;52.546;13.428;2024-03-22T07:55:51;10.20;99.90
3944;DHT22;1986;52.546;13.428;2024-03-22T07:58:19;10.30;99.90
3944;DHT22;1986;52.546;13.428;2024-03-22T08:00:45;10.30;99.90
3944;DHT22;1986;52.546;13.428;2024-03-22T08:03:15;10.30;99.90
3944;DHT22;1986;52.546;13.428;2024-03-22T08:05:42;10.30;99.90
3944;DHT22;1986;52.546;13.428;2024-03-22T08:08:09;10.30;99.90
3944;DHT22;1986;52.546;13.428;2024-03-22T08:10:36;10.40;99.90
3944;DHT22;1986;52.546;13.428;2024-03-22T08:13:03;10.40;99.90
3944;DHT22;1986;52.546;13.428;2024-03-22T08:15:29;10.40;99.90
3944;DHT22;1986;52.546;13.428;2024-03-22T08:17:56;10.40;99.90
3944;DHT22;1986;52.546;13.428;2024-03-22T08:20:23;10.40;99.90
3944;DHT22;1986;52.546;13.428;2024-03-22T08:22:51;10.40;99.90
3944;DHT22;1986;52.546;13.428;2024-03-22T08:25:20;10.50;99.90
3944;DHT22;1986;52.546;13.428;2024-03-22T08:27:48;10.50;99.90
3944;DHT22;1986;52.546;13.428;2024-03-22T08:30:14;10.60;99.90
3944;DHT22;1986;52.546;13.428;2024-03-22T08:32:41;10.70;99.90
3944;DHT22;1986;52.546;13.428;2024-03-22T08:35:08;10.70;99.90
3944;DHT22;1986;52.546;13.428;2024-03-22T08:37:35;10.70;99.90
3944;DHT22;1986;52.546;13.428;2024-03-22T08:40:05;10.70;99.90
3944;DHT22;1986;52.546;13.428;2024-03-22T08:42:33;10.70;99.90
3944;DHT22;1986;52.546;13.428;2024-03-22T08:44:59;10.70;99.90
3944;DHT22;1986;52.546;13.428;2024-03-22T08:47:25;10.80;99.90
3944;DHT22;1986;52.546;13.428;2024-03-22T08:49:51;10.80;99.90
3944;DHT22;1986;52.546;13.428;2024-03-22T08:52:18;10.90;99.90
3944;DHT22;1986;52.546;13.428;2024-03-22T08:54:44;11.00;99.90
3944;DHT22;1986;52.546;13.428;2024-03-22T08:57:13;11.00;99.90
3944;DHT22;1986;52.546;13.428;2024-03-22T08:59:39;11.10;99.90
3944;DHT22;1986;52.546;13.428;2024-03-22T09:02:05;11.30;99.90
3944;DHT22;1986;52.546;13.428;2024-03-22T09:04:31;11.40;99.90
3944;DHT22;1986;52.546;13.428;2024-03-22T09:06:58;11.50;99.90
3944;DHT22;1986;52.546;13.428;2024-03-22T09:09:24;11.60;99.90
3944;DHT22;1986;52.546;13.428;2024-03-22T09:11:51;11.60;99.90
3944;DHT22;1986;52.546;13.428;2024-03-22T09:14:19;11.50;99.90
3944;DHT22;1986;52.546;13.428;2024-03-22T09:16:48;11.40;99.90
3944;DHT22;1986;52.546;13.428;2024-03-22T09:19:14;11.60;99.90
3944;DHT22;1986;52.546;13.428;2024-03-22T09:21:42;11.60;99.90
3944;DHT22;1986;52.546;13.428;2024-03-22T09:24:09;11.60;99.90
3944;DHT22;1986;52.546;13.428;2024-03-22T09:26:36;11.70;99.90
3944;DHT22;1986;52.546;13.428;2024-03-22T09:29:02;11.80;99.90
3944;DHT22;1986;52.546;13.428;2024-03-22T09:31:31;11.90;99.90
3944;DHT22;1986;52.546;13.428;2024-03-22T09:33:58;11.80;98.00
3944;DHT22;1986;52.546;13.428;2024-03-22T09:36:25;11.90;98.50
3944;DHT22;1986;52.546;13.428;2024-03-22T09:38:52;11.90;97.50
3944;DHT22;1986;52.546;13.428;2024-03-22T09:41:24;12.10;97.30
3944;DHT22;1986;52.546;13.428;2024-03-22T09:43:52;12.20;96.90
3944;DHT22;1986;52.546;13.428;2024-03-22T09:46:19;12.30;92.10
3944;DHT22;1986;52.546;13.428;2024-03-22T09:48:48;12.20;88.20
3944;DHT22;1986;52.546;13.428;2024-03-22T09:51:16;12.30;89.80
3944;DHT22;1986;52.546;13.428;2024-03-22T09:53:44;12.40;89.90
3944;DHT22;1986;52.546;13.428;2024-03-22T09:56:11;12.30;80.80
3944;DHT22;1986;52.546;13.428;2024-03-22T09:58:41;12.10;83.60
3944;DHT22;1986;52.546;13.428;2024-03-22T10:01:08;12.20;90.00
3944;DHT22;1986;52.546;13.428;2024-03-22T10:03:36;12.20;88.60
3944;DHT22;1986;52.546;13.428;2024-03-22T10:06:04;12.40;91.00
3944;DHT22;1986;52.546;13.428;2024-03-22T10:08:31;12.40;85.40
3944;DHT22;1986;52.546;13.428;2024-03-22T10:11:01;12.40;83.50
3944;DHT22;1986;52.546;13.428;2024-03-22T10:13:28;12.50;81.00
3944;DHT22;1986;52.546;13.428;2024-03-22T10:15:55;12.60;77.30
3944;DHT22;1986;52.546;13.428;2024-03-22T10:18:23;12.70;69.40
3944;DHT22;1986;52.546;13.428;2024-03-22T10:20:59;12.80;70.30
3944;DHT22;1986;52.546;13.428;2024-03-22T10:23:27;13.00;62.30
3944;DHT22;1986;52.546;13.428;2024-03-22T10:25:54;12.80;45.60
3944;DHT22;1986;52.546;13.428;2024-03-22T10:28:21;12.80;47.10
3944;DHT22;1986;52.546;13.428;2024-03-22T10:30:50;13.00;48.20
3944;DHT22;1986;52.546;13.428;2024-03-22T10:33:21;13.20;46.10
3944;DHT22;1986;52.546;13.428;2024-03-22T10:35:53;13.20;34.90
3944;DHT22;1986;52.546;13.428;2024-03-22T10:38:30;13.10;22.50
3944;DHT22;1986;52.546;13.428;2024-03-22T10:41:08;13.20;26.90
3944;DHT22;1986;52.546;13.428;2024-03-22T10:43:42;13.30;20.50
3944;DHT22;1986;52.546;13.428;2024-03-22T10:46:32;13.40;19.70
3944;DHT22;1986;52.546;13.428;2024-03-22T10:49:04;13.50;12.00
3944;DHT22;1986;52.546;13.428;2024-03-22T10:51:33;13.80;10.40
3944;DHT22;1986;52.546;13.428;2024-03-22T10:54:03;13.70;1.00
3944;DHT22;1986;52.546;13.428;2024-03-22T10:56:47;13.70;1.00
3944;DHT22;1986;52.546;13.428;2024-03-22T10:59:18;13.60;1.00
3944;DHT22;1986;52.546;13.428;2024-03-22T11:01:50;13.70;1.00
3944;DHT22;1986;52.546;13.428;2024-03-22T11:04:20;13.70;1.00
3944;DHT22;1986;52.546;13.428;2024-03-22T11:06:48;13.90;1.00
3944;DHT22;1986;52.546;13.428;2024-03-22T11:09:20;13.80;1.00
3944;DHT22;1986;52.546;13.428;2024-03-22T11:11:57;13.70;1.00
3944;DHT22;1986;52.546;13.428;2024-03-22T11:14:31;13.80;1.00
3944;DHT22;1986;52.546;13.428;2024-03-22T11:17:14;14.00;1.00
3944;DHT22;1986;52.546;13.428;2024-03-22T11:19:57;13.80;1.00
3944;DHT22;1986;52.546;13.428;2024-03-22T11:22:25;13.50;1.00
3944;DHT22;1986;52.546;13.428;2024-03-22T11:24:56;13.50;1.00
3944;DHT22;1986;52.546;13.428;2024-03-22T11:27:25;13.40;1.00
3944;DHT22;1986;52.546;13.428;2024-03-22T11:29:52;13.40;1.00
3944;DHT22;1986;52.546;13.428;2024-03-22T11:32:20;13.10;1.00
3944;DHT22;1986;52.546;13.428;2024-03-22T11:34:46;12.90;1.00
3944;DHT22;1986;52.546;13.428;2024-03-22T11:37:13;12.80;6.60
3944;DHT22;1986;52.546;13.428;2024-03-22T11:39:39;12.80;15.80
3944;DHT22;1986;52.546;13.428;2024-03-22T11:42:08;12.80;22.60
3944;DHT22;1986;52.546;13.428;2024-03-22T11:44:37;12.80;29.60
3944;DHT22;1986;52.546;13.428;2024-03-22T11:47:04;12.70;33.80
3944;DHT22;1986;52.546;13.428;2024-03-22T11:49:31;12.70;45.20
3944;DHT22;1986;52.546;13.428;2024-03-22T11:51:57;12.70;58.20
3944;DHT22;1986;52.546;13.428;2024-03-22T11:54:24;12.60;83.70
3944;DHT22;1986;52.546;13.428;2024-03-22T11:56:51;12.40;99.40
3944;DHT22;1986;52.546;13.428;2024-03-22T11:59:19;12.20;99.90
3944;DHT22;1986;52.546;13.428;2024-03-22T12:01:48;12.20;99.90
3944;DHT22;1986;52.546;13.428;2024-03-22T12:04:14;12.20;99.90
3944;DHT22;1986;52.546;13.428;2024-03-22T12:06:42;12.20;99.90
3944;DHT22;1986;52.546;13.428;2024-03-22T12:09:08;12.20;99.90
3944;DHT22;1986;52.546;13.428;2024-03-22T12:11:41;12.20;99.90
3944;DHT22;1986;52.546;13.428;2024-03-22T12:14:07;12.20;99.90
3944;DHT22;1986;52.546;13.428;2024-03-22T12:16:33;12.20;99.90
3944;DHT22;1986;52.546;13.428;2024-03-22T12:19:01;12.00;99.90
3944;DHT22;1986;52.546;13.428;2024-03-22T12:21:29;12.00;99.90
3944;DHT22;1986;52.546;13.428;2024-03-22T12:23:55;11.90;99.90
3944;DHT22;1986;52.546;13.428;2024-03-22T12:26:24;11.90;99.90
3944;DHT22;1986;52.546;13.428;2024-03-22T12:28:50;11.80;99.90
3944;DHT22;1986;52.546;13.428;2024-03-22T12:31:17;11.70;99.90
3944;DHT22;1986;52.546;13.428;2024-03-22T12:33:44;11.70;99.90
3944;DHT22;1986;52.546;13.428;2024-03-22T12:36:12;11.70;99.90
3944;DHT22;1986;52.546;13.428;2024-03-22T12:38:38;11.60;99.90
3944;DHT22;1986;52.546;13.428;2024-03-22T12:41:05;11.50;99.90
3944;DHT22;1986;52.546;13.428;2024-03-22T12:43:31;11.50;99.90
3944;DHT22;1986;52.546;13.428;2024-03-22T12:45:59;11.50;99.90
3944;DHT22;1986;52.546;13.428;2024-03-22T12:48:25;11.50;99.90
3944;DHT22;1986;52.546;13.428;2024-03-22T12:50:52;11.40;99.90
3944;DHT22;1986;52.546;13.428;2024-03-22T12:53:22;11.40;99.90
3944;DHT22;1986;52.546;13.428;2024-03-22T12:55:50;11.30;99.90
3944;DHT22;1986;52.546;13.428;2024-03-22T12:58:16;11.20;99.90
3944;DHT22;1986;52.546;13.428;2024-03-22T13:00:43;11.20;99.90
3944;DHT22;1986;52.546;13.428;2024-03-22T13:03:09;11.20;99.90
3944;DHT22;1986;52.546;13.428;2024-03-22T13:05:39;11.20;99.90
3944;DHT22;1986;52.546;13.428;2024-03-22T13:08:05;11.20;99.90
3944;DHT22;1986;52.546;13.428;2024-03-22T13:10:36;11.10;99.90
3944;DHT22;1986;52.546;13.428;2024-03-22T13:13:08;11.00;99.90
3944;DHT22;1986;52.546;13.428;2024-03-22T13:15:34;11.00;99.90
3944;DHT22;1986;52.546;13.428;2024-03-22T13:18:02;11.00;99.90
3944;DHT22;1986;52.546;13.428;2024-03-22T13:20:28;11.00;99.90
3944;DHT22;1986;52.546;13.428;2024-03-22T13:22:56;11.10;99.90
3944;DHT22;1986;52.546;13.428;2024-03-22T13:25:22;11.10;99.90
3944;DHT22;1986;52.546;13.428;2024-03-22T13:27:51;11.00;99.90
3944;DHT22;1986;52.546;13.428;2024-03-22T13:30:17;11.00;99.90
3944;DHT22;1986;52.546;13.428;2024-03-22T13:32:44;11.10;99.90
3944;DHT22;1986;52.546;13.428;2024-03-22T13:35:10;11.00;99.90
3944;DHT22;1986;52.546;13.428;2024-03-22T13:37:38;11.10;99.90
3944;DHT22;1986;52.546;13.428;2024-03-22T13:40:04;11.10;99.90
3944;DHT22;1986;52.546;13.428;2024-03-22T13:42:32;11.00;99.90
3944;DHT22;1986;52.546;13.428;2024-03-22T13:44:59;11.10;99.90
3944;DHT22;1986;52.546;13.428;2024-03-22T13:47:27;11.10;99.90
3944;DHT22;1986;52.546;13.428;2024-03-22T13:49:58;11.10;99.90
3944;DHT22;1986;52.546;13.428;2024-03-22T13:52:25;11.10;99.90
3944;DHT22;1986;52.546;13.428;2024-03-22T13:54:51;11.10;99.90
3944;DHT22;1986;52.546;13.428;2024-03-22T13:57:21;11.20;99.90
3944;DHT22;1986;52.546;13.428;2024-03-22T13:59:47;11.10;99.90
3944;DHT22;1986;52.546;13.428;2024-03-22T14:02:15;11.20;99.90
3944;DHT22;1986;52.546;13.428;2024-03-22T14:04:41;11.20;99.90
3944;DHT22;1986;52.546;13.428;2024-03-22T14:07:08;11.40;99.90
3944;DHT22;1986;52.546;13.428;2024-03-22T14:09:35;11.40;99.90
3944;DHT22;1986;52.546;13.428;2024-03-22T14:12:02;11.40;99.90
3944;DHT22;1986;52.546;13.428;2024-03-22T14:14:28;11.40;99.90
3944;DHT22;1986;52.546;13.428;2024-03-22T14:16:55;11.50;99.90
3944;DHT22;1986;52.546;13.428;2024-03-22T14:19:22;11.40;99.90
3944;DHT22;1986;52.546;13.428;2024-03-22T14:21:49;11.40;99.90
3944;DHT22;1986;52.546;13.428;2024-03-22T14:24:15;11.50;99.90
3944;DHT22;1986;52.546;13.428;2024-03-22T14:26:42;11.50;99.90
3944;DHT22;1986;52.546;13.428;2024-03-22T14:29:08;11.60;99.90
3944;DHT22;1986;52.546;13.428;2024-03-22T14:31:36;11.70;99.90
3944;DHT22;1986;52.546;13.428;2024-03-22T14:34:02;11.70;99.90
3944;DHT22;1986;52.546;13.428;2024-03-22T14:36:30;11.80;99.90
3944;DHT22;1986;52.546;13.428;2024-03-22T14:38:56;11.90;99.90
3944;DHT22;1986;52.546;13.428;2024-03-22T14:41:24;11.90;99.90
3944;DHT22;1986;52.546;13.428;2024-03-22T14:43:52;11.90;99.90
3944;DHT22;1986;52.546;13.428;2024-03-22T14:46:20;11.90;99.90
3944;DHT22;1986;52.546;13.428;2024-03-22T14:48:50;11.90;99.90
3944;DHT22;1986;52.546;13.428;2024-03-22T14:51:17;12.00;99.90
3944;DHT22;1986;52.546;13.428;2024-03-22T14:53:45;12.10;99.90
3944;DHT22;1986;52.546;13.428;2024-03-22T14:56:12;12.00;99.90
3944;DHT22;1986;52.546;13.428;2024-03-22T14:58:39;12.00;99.90
3944;DHT22;1986;52.546;13.428;2024-03-22T15:01:08;11.90;99.90
3944;DHT22;1986;52.546;13.428;2024-03-22T15:03:35;11.90;99.90
3944;DHT22;1986;52.546;13.428;2024-03-22T15:06:02;11.90;99.90
3944;DHT22;1986;52.546;13.428;2024-03-22T15:08:28;11.90;99.90
3944;DHT22;1986;52.546;13.428;2024-03-22T15:10:57;12.00;99.90
3944;DHT22;1986;52.546;13.428;2024-03-22T15:13:23;12.00;99.90
3944;DHT22;1986;52.546;13.428;2024-03-22T15:15:53;11.90;99.90
3944;DHT22;1986;52.546;13.428;2024-03-22T15:18:19;11.90;99.90
3944;DHT22;1986;52.546;13.428;2024-03-22T15:20:47;11.90;99.90
3944;DHT22;1986;52.546;13.428;2024-03-22T15:23:13;11.90;99.90
3944;DHT22;1986;52.546;13.428;2024-03-22T15:25:41;11.90;99.90
3944;DHT22;1986;52.546;13.428;2024-03-22T15:28:09;11.90;99.90
3944;DHT22;1986;52.546;13.428;2024-03-22T15:30:37;11.80;99.90
3944;DHT22;1986;52.546;13.428;2024-03-22T15:33:04;11.70;99.90
3944;DHT22;1986;52.546;13.428;2024-03-22T15:35:32;11.70;99.90
3944;DHT22;1986;52.546;13.428;2024-03-22T15:37:58;11.70;99.90
3944;DHT22;1986;52.546;13.428;2024-03-22T15:40:25;11.60;99.90
3944;DHT22;1986;52.546;13.428;2024-03-22T15:42:52;11.70;99.90
3944;DHT22;1986;52.546;13.428;2024-03-22T15:45:20;11.60;99.90
3944;DHT22;1986;52.546;13.428;2024-03-22T15:47:46;11.60;99.90
3944;DHT22;1986;52.546;13.428;2024-03-22T15:50:13;11.60;99.90
3944;DHT22;1986;52.546;13.428;2024-03-22T15:52:40;11.60;99.90
3944;DHT22;1986;52.546;13.428;2024-03-22T15:55:07;11.60;99.90
3944;DHT22;1986;52.546;13.428;2024-03-22T15:57:34;11.50;99.90